createdAt,value
2024-04-09T00:00:43.034Z,94057.00
2024-04-09T00:01:28.066Z,94056.00
2024-04-09T00:02:28.037Z,94057.00
2024-04-09T00:03:28.322Z,94055.00
2024-04-09T00:04:28.078Z,94058.00
2024-04-09T00:05:27.984Z,94062.00
2024-04-09T00:07:03.514Z,94060.00
2024-04-09T00:07:28.107Z,94060.00
2024-04-09T00:08:28.110Z,94057.00
2024-04-09T00:09:28.179Z,94055.00
2024-04-09T00:10:28.114Z,94056.00
2024-04-09T00:11:28.163Z,94055.00
2024-04-09T00:12:28.222Z,94054.00
2024-04-09T00:13:28.161Z,94053.00
2024-04-09T00:14:28.208Z,94056.00
2024-04-09T00:15:28.250Z,94056.00
2024-04-09T00:16:30.380Z,94054.00
2024-04-09T00:17:28.322Z,94051.00
2024-04-09T00:18:28.459Z,94049.00
2024-04-09T00:19:28.432Z,94049.00
2024-04-09T00:20:28.196Z,94045.00
2024-04-09T00:21:28.252Z,94048.00
2024-04-09T00:22:28.167Z,94048.00
2024-04-09T00:23:28.147Z,94047.00
2024-04-09T00:24:28.156Z,94047.00
2024-04-09T00:25:43.027Z,94048.00
2024-04-09T00:26:28.097Z,94050.00
2024-04-09T00:27:28.100Z,94044.00
2024-04-09T00:28:46.522Z,94045.00
2024-04-09T00:29:28.056Z,94045.00
2024-04-09T00:30:28.043Z,94044.00
2024-04-09T00:31:42.531Z,94045.00
2024-04-09T00:32:28.161Z,94046.00
2024-04-09T00:33:28.268Z,94049.00
2024-04-09T00:34:28.267Z,94050.00
2024-04-09T00:35:28.164Z,94051.00
2024-04-09T00:36:28.241Z,94049.00
2024-04-09T00:37:28.188Z,94050.00
2024-04-09T00:38:28.225Z,94051.00
2024-04-09T00:39:28.343Z,94049.00
2024-04-09T00:40:28.282Z,94046.00
2024-04-09T00:41:28.316Z,94044.00
2024-04-09T00:42:28.475Z,94040.00
2024-04-09T00:43:28.378Z,94035.00
2024-04-09T00:44:28.413Z,94035.00
2024-04-09T00:45:28.508Z,94030.00
2024-04-09T00:46:28.470Z,94031.00
2024-04-09T00:47:28.594Z,94029.00
2024-04-09T00:48:28.800Z,94034.00
2024-04-09T00:49:28.611Z,94033.00
2024-04-09T00:50:28.615Z,94032.00
2024-04-09T00:51:28.689Z,94027.00
2024-04-09T00:52:28.673Z,94026.00
2024-04-09T00:53:36.549Z,94027.00
2024-04-09T00:54:28.820Z,94028.00
2024-04-09T00:55:28.676Z,94024.00
2024-04-09T00:56:49.675Z,94025.00
2024-04-09T00:57:28.755Z,94025.00
2024-04-09T00:58:28.658Z,94024.00
2024-04-09T00:59:52.536Z,94026.00
2024-04-09T01:00:28.725Z,94025.00
2024-04-09T01:01:28.679Z,94023.00
2024-04-09T01:02:28.690Z,94019.00
2024-04-09T01:03:28.752Z,94018.00
2024-04-09T01:04:28.859Z,94016.00
2024-04-09T01:05:28.603Z,94016.00
2024-04-09T01:06:28.621Z,94016.00
2024-04-09T01:07:28.574Z,94014.00
2024-04-09T01:08:28.573Z,94014.00
2024-04-09T01:09:28.588Z,94016.00
2024-04-09T01:10:28.538Z,94013.00
2024-04-09T01:11:28.614Z,94012.00
2024-04-09T01:12:28.636Z,94011.00
2024-04-09T01:13:28.523Z,94012.00
2024-04-09T01:14:29.605Z,94013.00
2024-04-09T01:15:31.135Z,94007.00
2024-04-09T01:16:28.484Z,94004.00
2024-04-09T01:17:28.550Z,94002.00
2024-04-09T01:18:28.568Z,94002.00
2024-04-09T01:19:28.441Z,94002.00
2024-04-09T01:20:28.437Z,94007.00
2024-04-09T01:21:31.118Z,94015.00
2024-04-09T01:22:28.410Z,94014.00
2024-04-09T01:23:28.413Z,94013.00
2024-04-09T01:24:52.044Z,94010.00
2024-04-09T01:25:28.373Z,94007.00
2024-04-09T01:26:28.386Z,94002.00
2024-04-09T01:27:28.454Z,94001.00
2024-04-09T01:28:28.342Z,93997.00
2024-04-09T01:29:28.335Z,93998.00
2024-04-09T01:30:28.397Z,93997.00
2024-04-09T01:31:28.319Z,94001.00
2024-04-09T01:32:28.409Z,94005.00
2024-04-09T01:33:28.400Z,94008.00
2024-04-09T01:34:28.308Z,94010.00
2024-04-09T01:35:28.276Z,94007.00
2024-04-09T01:36:28.348Z,94011.00
2024-04-09T01:37:28.262Z,94014.00
2024-04-09T01:38:28.253Z,94017.00
2024-04-09T01:39:28.284Z,94016.00
2024-04-09T01:40:28.224Z,94015.00
2024-04-09T01:41:28.201Z,94012.00
2024-04-09T01:42:28.300Z,94010.00
2024-04-09T01:43:28.181Z,94007.00
2024-04-09T01:44:28.173Z,94011.00
2024-04-09T01:45:28.194Z,94012.00
2024-04-09T01:46:43.096Z,94012.00
2024-04-09T01:47:28.222Z,94016.00
2024-04-09T01:48:28.269Z,94017.00
2024-04-09T01:49:49.131Z,94017.00
2024-04-09T01:50:28.108Z,94021.00
2024-04-09T01:51:28.168Z,94019.00
2024-04-09T01:52:52.054Z,94017.00
2024-04-09T01:53:28.074Z,94016.00
2024-04-09T01:54:28.208Z,94020.00
2024-04-09T01:55:28.046Z,94022.00
2024-04-09T01:56:28.046Z,94025.00
2024-04-09T01:57:28.227Z,94023.00
2024-04-09T01:58:28.022Z,94027.00
2024-04-09T01:59:28.026Z,94023.00
2024-04-09T02:00:28.062Z,94023.00
2024-04-09T02:01:28.047Z,94022.00
2024-04-09T02:02:28.074Z,94021.00
2024-04-09T02:03:28.100Z,94016.00
2024-04-09T02:04:28.093Z,94015.00
2024-04-09T02:05:27.965Z,94010.00
2024-04-09T02:06:27.974Z,94005.00
2024-04-09T02:07:27.951Z,94000.00
2024-04-09T02:08:27.954Z,93997.00
2024-04-09T02:09:27.987Z,93995.00
2024-04-09T02:10:27.926Z,93996.00
2024-04-09T02:11:42.588Z,93999.00
2024-04-09T02:12:28.123Z,94004.00
2024-04-09T02:13:27.893Z,94005.00
2024-04-09T02:14:29.441Z,94000.00
2024-04-09T02:15:28.000Z,94003.00
2024-04-09T02:16:27.906Z,94000.00
2024-04-09T02:17:51.620Z,94003.00
2024-04-09T02:18:28.020Z,94005.00
2024-04-09T02:19:27.843Z,94008.00
2024-04-09T02:20:27.869Z,94008.00
2024-04-09T02:21:27.967Z,94010.00
2024-04-09T02:22:27.814Z,94012.00
2024-04-09T02:23:27.803Z,94013.00
2024-04-09T02:24:27.873Z,94014.00
2024-04-09T02:25:27.781Z,94014.00
2024-04-09T02:26:27.768Z,94013.00
2024-04-09T02:27:27.772Z,94012.00
2024-04-09T02:28:27.761Z,94011.00
2024-04-09T02:29:27.740Z,94005.00
2024-04-09T02:30:27.761Z,94001.00
2024-04-09T02:31:27.693Z,94000.00
2024-04-09T02:32:27.717Z,93996.00
2024-04-09T02:33:27.734Z,94000.00
2024-04-09T02:34:27.668Z,94000.00
2024-04-09T02:35:27.656Z,94003.00
2024-04-09T02:36:42.636Z,94008.00
2024-04-09T02:37:27.626Z,94008.00
2024-04-09T02:38:27.646Z,94011.00
2024-04-09T02:39:34.727Z,94013.00
2024-04-09T02:40:27.608Z,94015.00
2024-04-09T02:41:27.586Z,94016.00
2024-04-09T02:42:51.073Z,94012.00
2024-04-09T02:43:27.689Z,94013.00
2024-04-09T02:44:27.706Z,94012.00
2024-04-09T02:45:48.752Z,94015.00
2024-04-09T02:46:27.813Z,94015.00
2024-04-09T02:47:27.775Z,94019.00
2024-04-09T02:48:27.855Z,94020.00
2024-04-09T02:49:27.688Z,94021.00
2024-04-09T02:50:27.741Z,94021.00
2024-04-09T02:51:27.682Z,94022.00
2024-04-09T02:52:27.688Z,94020.00
2024-04-09T02:53:27.662Z,94016.00
2024-04-09T02:54:27.682Z,94015.00
2024-04-09T02:55:27.654Z,94017.00
2024-04-09T02:56:27.642Z,94019.00
2024-04-09T02:57:27.757Z,94019.00
2024-04-09T02:58:27.646Z,94022.00
2024-04-09T02:59:27.589Z,94020.00
2024-04-09T03:00:27.985Z,94018.00
2024-04-09T03:01:42.086Z,94020.00
2024-04-09T03:02:27.781Z,94019.00
2024-04-09T03:03:27.857Z,94017.00
2024-04-09T03:04:27.797Z,94017.00
2024-04-09T03:05:27.770Z,94019.00
2024-04-09T03:06:27.806Z,94013.00
2024-04-09T03:07:30.583Z,94010.00
2024-04-09T03:08:27.811Z,94008.00
2024-04-09T03:09:27.853Z,94007.00
2024-04-09T03:10:56.634Z,94008.00
2024-04-09T03:11:27.841Z,94009.00
2024-04-09T03:12:27.813Z,94012.00
2024-04-09T03:13:27.773Z,94015.00
2024-04-09T03:14:27.764Z,94019.00
2024-04-09T03:15:27.799Z,94019.00
2024-04-09T03:16:27.783Z,94016.00
2024-04-09T03:17:27.803Z,94015.00
2024-04-09T03:18:27.760Z,94012.00
2024-04-09T03:19:27.724Z,94012.00
2024-04-09T03:20:27.753Z,94009.00
2024-04-09T03:21:27.763Z,94010.00
2024-04-09T03:22:27.713Z,94011.00
2024-04-09T03:23:27.734Z,94010.00
2024-04-09T03:24:27.802Z,94007.00
2024-04-09T03:25:27.830Z,94007.00
2024-04-09T03:26:28.175Z,94008.00
2024-04-09T03:27:27.946Z,94009.00
2024-04-09T03:28:27.953Z,94011.00
2024-04-09T03:29:28.000Z,94013.00
2024-04-09T03:30:28.083Z,94013.00
2024-04-09T03:31:28.098Z,94015.00
2024-04-09T03:32:43.144Z,94013.00
2024-04-09T03:33:28.326Z,94014.00
2024-04-09T03:34:28.169Z,94015.00
2024-04-09T03:35:33.616Z,94017.00
2024-04-09T03:36:28.260Z,94017.00
2024-04-09T03:37:28.256Z,94018.00
2024-04-09T03:38:52.605Z,94016.00
2024-04-09T03:39:28.290Z,94015.00
2024-04-09T03:40:28.248Z,94014.00
2024-04-09T03:41:28.232Z,94015.00
2024-04-09T03:42:28.288Z,94012.00
2024-04-09T03:43:28.211Z,94010.00
2024-04-09T03:44:28.196Z,94010.00
2024-04-09T03:45:28.218Z,94008.00
2024-04-09T03:46:28.168Z,94009.00
2024-04-09T03:47:28.229Z,94011.00
2024-04-09T03:48:28.235Z,94012.00
2024-04-09T03:49:28.242Z,94009.00
2024-04-09T03:50:28.128Z,94010.00
2024-04-09T03:51:28.135Z,94006.00
2024-04-09T03:52:28.109Z,94004.00
2024-04-09T03:53:28.094Z,94004.00
2024-04-09T03:54:28.124Z,94001.00
2024-04-09T03:55:28.072Z,93998.00
2024-04-09T03:56:28.051Z,93996.00
2024-04-09T03:57:42.735Z,93992.00
2024-04-09T03:58:28.024Z,93995.00
2024-04-09T03:59:28.030Z,94001.00
2024-04-09T04:00:49.098Z,94005.00
2024-04-09T04:01:28.051Z,94004.00
2024-04-09T04:02:28.098Z,94005.00
2024-04-09T04:03:46.391Z,94002.00
2024-04-09T04:04:28.001Z,93999.00
2024-04-09T04:05:27.974Z,93996.00
2024-04-09T04:06:28.025Z,93994.00
2024-04-09T04:07:27.912Z,93991.00
2024-04-09T04:08:27.905Z,93985.00
2024-04-09T04:09:27.924Z,93980.00
2024-04-09T04:10:27.887Z,93977.00
2024-04-09T04:11:27.978Z,93974.00
2024-04-09T04:12:27.983Z,93974.00
2024-04-09T04:13:27.869Z,93973.00
2024-04-09T04:14:27.860Z,93973.00
2024-04-09T04:15:27.904Z,93973.00
2024-04-09T04:16:27.843Z,93976.00
2024-04-09T04:17:27.883Z,93981.00
2024-04-09T04:18:27.884Z,93983.00
2024-04-09T04:19:34.619Z,93981.00
2024-04-09T04:20:27.811Z,93976.00
2024-04-09T04:21:27.865Z,93970.00
2024-04-09T04:22:27.779Z,93964.00
2024-04-09T04:23:27.772Z,93961.00
2024-04-09T04:24:27.823Z,93957.00
2024-04-09T04:25:48.760Z,93960.00
2024-04-09T04:26:27.827Z,93956.00
2024-04-09T04:27:27.798Z,93951.00
2024-04-09T04:28:48.734Z,93954.00
2024-04-09T04:29:27.711Z,93958.00
2024-04-09T04:30:34.980Z,93956.00
2024-04-09T04:31:49.807Z,93958.00
2024-04-09T04:32:42.339Z,93964.00
2024-04-09T04:33:42.444Z,93968.00
2024-04-09T04:34:56.800Z,93970.00
2024-04-09T04:35:42.428Z,93969.00
2024-04-09T04:36:42.477Z,93966.00
2024-04-09T04:38:04.310Z,93965.00
2024-04-09T04:38:42.502Z,93965.00
2024-04-09T04:39:42.551Z,93970.00
2024-04-09T04:40:42.516Z,93962.00
2024-04-09T04:41:42.522Z,93960.00
2024-04-09T04:42:42.615Z,93962.00
2024-04-09T04:43:42.546Z,93958.00
2024-04-09T04:44:42.559Z,93957.00
2024-04-09T04:45:42.600Z,93955.00
2024-04-09T04:46:42.574Z,93951.00
2024-04-09T04:47:42.631Z,93949.00
2024-04-09T04:48:42.815Z,93952.00
2024-04-09T04:49:42.680Z,93956.00
2024-04-09T04:50:42.602Z,93962.00
2024-04-09T04:51:42.701Z,93960.00
2024-04-09T04:52:42.633Z,93962.00
2024-04-09T04:53:50.313Z,93964.00
2024-04-09T04:54:42.689Z,93965.00
2024-04-09T04:55:42.663Z,93967.00
2024-04-09T04:56:57.354Z,93962.00
2024-04-09T04:57:42.681Z,93958.00
2024-04-09T04:58:42.683Z,93955.00
2024-04-09T04:59:57.334Z,93954.00
2024-04-09T05:00:43.196Z,93951.00
2024-04-09T05:01:43.012Z,93953.00
2024-04-09T05:03:04.200Z,93953.00
2024-04-09T05:03:43.047Z,93951.00
2024-04-09T05:04:43.050Z,93953.00
2024-04-09T05:05:43.022Z,93957.00
2024-04-09T05:06:43.129Z,93956.00
2024-04-09T05:07:43.022Z,93957.00
2024-04-09T05:08:43.023Z,93959.00
2024-04-09T05:09:43.054Z,93958.00
2024-04-09T05:10:43.029Z,93957.00
2024-04-09T05:11:43.064Z,93958.00
2024-04-09T05:12:43.074Z,93958.00
2024-04-09T05:13:43.044Z,93961.00
2024-04-09T05:14:43.815Z,93964.00
2024-04-09T05:15:43.143Z,93968.00
2024-04-09T05:16:43.050Z,93968.00
2024-04-09T05:17:43.169Z,93967.00
2024-04-09T05:19:43.141Z,93956.00
2024-04-09T05:20:43.080Z,93954.00
2024-04-09T05:21:57.813Z,93952.00
2024-04-09T05:22:43.117Z,93952.00
2024-04-09T05:23:43.328Z,93954.00
2024-04-09T05:24:43.121Z,93956.00
2024-04-09T05:25:43.107Z,93959.00
2024-04-09T05:26:43.140Z,93953.00
2024-04-09T05:27:57.822Z,93953.00
2024-04-09T05:28:43.326Z,93950.00
2024-04-09T05:29:43.826Z,93953.00
2024-04-09T05:31:10.824Z,93948.00
2024-04-09T05:31:46.604Z,93949.00
2024-04-09T05:32:43.431Z,93952.00
2024-04-09T05:33:43.396Z,93950.00
2024-04-09T05:34:43.176Z,93949.00
2024-04-09T05:35:43.189Z,93949.00
2024-04-09T05:36:43.471Z,93952.00
2024-04-09T05:37:43.622Z,93952.00
2024-04-09T05:38:43.478Z,93950.00
2024-04-09T05:39:43.451Z,93951.00
2024-04-09T05:40:43.443Z,93950.00
2024-04-09T05:41:43.324Z,93950.00
2024-04-09T05:42:43.384Z,93953.00
2024-04-09T05:43:43.346Z,93953.00
2024-04-09T05:44:43.327Z,93954.00
2024-04-09T05:45:43.402Z,93957.00
2024-04-09T05:46:43.326Z,93959.00
2024-04-09T05:47:43.508Z,93961.00
2024-04-09T05:48:43.551Z,93965.00
2024-04-09T05:49:46.387Z,93970.00
2024-04-09T05:50:43.387Z,93973.00
2024-04-09T05:51:43.386Z,93974.00
2024-04-09T05:52:43.387Z,93974.00
2024-04-09T05:53:43.426Z,93974.00
2024-04-09T05:54:43.554Z,93974.00
2024-04-09T05:56:04.456Z,93974.00
2024-04-09T05:56:43.421Z,93974.00
2024-04-09T05:57:43.637Z,93975.00
2024-04-09T05:58:43.456Z,93976.00
2024-04-09T05:59:43.479Z,93979.00
2024-04-09T06:00:43.564Z,93981.00
2024-04-09T06:01:43.554Z,93986.00
2024-04-09T06:02:43.518Z,93987.00
2024-04-09T06:03:43.606Z,93985.00
2024-04-09T06:04:43.628Z,93984.00
2024-04-09T06:05:43.579Z,93982.00
2024-04-09T06:06:43.590Z,93979.00
2024-04-09T06:07:43.567Z,93978.00
2024-04-09T06:08:43.592Z,93979.00
2024-04-09T06:09:43.642Z,93976.00
2024-04-09T06:10:43.607Z,93975.00
2024-04-09T06:11:50.377Z,93978.00
2024-04-09T06:12:43.945Z,93977.00
2024-04-09T06:13:43.666Z,93981.00
2024-04-09T06:14:58.419Z,93986.00
2024-04-09T06:15:43.681Z,93987.00
2024-04-09T06:16:43.674Z,93986.00
2024-04-09T06:18:00.044Z,93982.00
2024-04-09T06:18:43.930Z,93980.00
2024-04-09T06:19:43.933Z,93979.00
2024-04-09T06:21:04.743Z,93980.00
2024-04-09T06:21:43.803Z,93984.00
2024-04-09T06:22:43.743Z,93985.00
2024-04-09T06:23:43.764Z,93988.00
2024-04-09T06:24:44.806Z,93990.00
2024-04-09T06:25:43.777Z,93990.00
2024-04-09T06:26:43.791Z,93988.00
2024-04-09T06:27:43.849Z,93991.00
2024-04-09T06:28:43.896Z,93988.00
2024-04-09T06:29:43.850Z,93992.00
2024-04-09T06:30:44.008Z,93990.00
2024-04-09T06:31:43.855Z,93995.00
2024-04-09T06:32:44.049Z,93995.00
2024-04-09T06:33:43.911Z,93996.00
2024-04-09T06:34:43.987Z,93998.00
2024-04-09T06:35:43.918Z,93999.00
2024-04-09T06:36:44.016Z,93996.00
2024-04-09T06:37:43.958Z,93996.00
2024-04-09T06:38:44.358Z,93997.00
2024-04-09T06:39:44.246Z,93996.00
2024-04-09T06:40:44.157Z,93998.00
2024-04-09T06:41:44.210Z,93997.00
2024-04-09T06:42:50.931Z,93996.00
2024-04-09T06:43:44.293Z,93990.00
2024-04-09T06:44:44.277Z,93993.00
2024-04-09T06:46:07.854Z,93988.00
2024-04-09T06:46:44.486Z,93987.00
2024-04-09T06:47:44.585Z,93988.00
2024-04-09T06:49:05.607Z,93989.00
2024-04-09T06:49:44.922Z,93988.00
2024-04-09T06:50:44.512Z,93987.00
2024-04-09T06:51:44.571Z,93987.00
2024-04-09T06:52:44.550Z,93990.00
2024-04-09T06:53:44.527Z,93992.00
2024-04-09T06:54:44.616Z,93993.00
2024-04-09T06:55:44.526Z,93994.00
2024-04-09T06:56:44.529Z,93995.00
2024-04-09T06:57:44.554Z,93994.00
2024-04-09T06:58:44.915Z,93999.00
2024-04-09T06:59:44.561Z,93994.00
2024-04-09T07:00:44.682Z,93995.00
2024-04-09T07:01:44.755Z,93998.00
2024-04-09T07:02:44.621Z,93999.00
2024-04-09T07:03:44.713Z,94001.00
2024-04-09T07:04:44.567Z,94002.00
2024-04-09T07:05:44.548Z,94003.00
2024-04-09T07:06:44.592Z,94005.00
2024-04-09T07:07:44.537Z,94008.00
2024-04-09T07:08:44.566Z,94013.00
2024-04-09T07:09:44.641Z,94013.00
2024-04-09T07:11:00.910Z,94015.00
2024-04-09T07:11:44.576Z,94019.00
2024-04-09T07:12:44.546Z,94024.00
2024-04-09T07:14:08.902Z,94023.00
2024-04-09T07:14:44.509Z,94023.00
2024-04-09T07:15:44.540Z,94020.00
2024-04-09T07:17:00.919Z,94019.00
2024-04-09T07:17:44.586Z,94019.00
2024-04-09T07:18:44.519Z,94021.00
2024-04-09T07:19:44.544Z,94022.00
2024-04-09T07:20:44.479Z,94024.00
2024-04-09T07:21:44.668Z,94022.00
2024-04-09T07:22:45.652Z,94022.00
2024-04-09T07:23:44.487Z,94022.00
2024-04-09T07:24:44.529Z,94023.00
2024-04-09T07:25:44.485Z,94023.00
2024-04-09T07:26:44.481Z,94022.00
2024-04-09T07:27:44.460Z,94020.00
2024-04-09T07:28:44.886Z,94021.00
2024-04-09T07:29:44.465Z,94023.00
2024-04-09T07:30:44.519Z,94023.00
2024-04-09T07:31:44.499Z,94023.00
2024-04-09T07:32:44.481Z,94026.00
2024-04-09T07:33:44.537Z,94027.00
2024-04-09T07:34:44.589Z,94025.00
2024-04-09T07:35:44.643Z,94025.00
2024-04-09T07:36:48.074Z,94026.00
2024-04-09T07:37:44.686Z,94026.00
2024-04-09T07:38:55.380Z,94031.00
2024-04-09T07:39:44.703Z,94031.00
2024-04-09T07:40:44.685Z,94028.00
2024-04-09T07:42:08.071Z,94027.00
2024-04-09T07:42:45.022Z,94026.00
2024-04-09T07:43:45.437Z,94023.00
2024-04-09T07:44:45.020Z,94021.00
2024-04-09T07:45:45.153Z,94019.00
2024-04-09T07:46:45.239Z,94017.00
2024-04-09T07:47:45.290Z,94017.00
2024-04-09T07:48:45.396Z,94016.00
2024-04-09T07:49:45.432Z,94016.00
2024-04-09T07:50:45.391Z,94017.00
2024-04-09T07:51:45.481Z,94014.00
2024-04-09T07:52:45.521Z,94012.00
2024-04-09T07:53:45.612Z,94010.00
2024-04-09T07:54:45.710Z,94010.00
2024-04-09T07:55:45.728Z,94011.00
2024-04-09T07:56:45.799Z,94013.00
2024-04-09T07:57:45.866Z,94014.00
2024-04-09T07:58:45.916Z,94015.00
2024-04-09T07:59:45.976Z,94020.00
2024-04-09T08:00:53.127Z,94021.00
2024-04-09T08:01:46.010Z,94025.00
2024-04-09T08:02:46.062Z,94026.00
2024-04-09T08:03:46.206Z,94026.00
2024-04-09T08:04:46.156Z,94027.00
2024-04-09T08:05:46.058Z,94026.00
2024-04-09T08:07:01.057Z,94025.00
2024-04-09T08:07:46.016Z,94027.00
2024-04-09T08:08:48.536Z,94027.00
2024-04-09T08:10:07.033Z,94028.00
2024-04-09T08:10:45.930Z,94027.00
2024-04-09T08:11:46.117Z,94027.00
2024-04-09T08:12:45.929Z,94028.00
2024-04-09T08:13:45.901Z,94024.00
2024-04-09T08:14:45.880Z,94024.00
2024-04-09T08:15:46.000Z,94026.00
2024-04-09T08:16:45.856Z,94027.00
2024-04-09T08:17:46.028Z,94032.00
2024-04-09T08:18:46.136Z,94032.00
2024-04-09T08:19:45.899Z,94032.00
2024-04-09T08:20:45.826Z,94031.00
2024-04-09T08:21:45.848Z,94032.00
2024-04-09T08:22:45.800Z,94030.00
2024-04-09T08:23:45.834Z,94028.00
2024-04-09T08:24:45.894Z,94027.00
2024-04-09T08:25:45.775Z,94027.00
2024-04-09T08:26:45.765Z,94028.00
2024-04-09T08:27:45.802Z,94029.00
2024-04-09T08:28:59.911Z,94027.00
2024-04-09T08:29:45.744Z,94025.00
2024-04-09T08:30:45.782Z,94023.00
2024-04-09T08:31:52.463Z,94023.00
2024-04-09T08:32:45.762Z,94021.00
2024-04-09T08:33:45.822Z,94024.00
2024-04-09T08:35:09.543Z,94027.00
2024-04-09T08:35:45.815Z,94029.00
2024-04-09T08:36:45.831Z,94030.00
2024-04-09T08:37:45.841Z,94025.00
2024-04-09T08:38:45.807Z,94022.00
2024-04-09T08:39:45.910Z,94019.00
2024-04-09T08:40:45.740Z,94014.00
2024-04-09T08:41:45.738Z,94014.00
2024-04-09T08:42:45.915Z,94015.00
2024-04-09T08:43:45.795Z,94015.00
2024-04-09T08:44:45.746Z,94014.00
2024-04-09T08:45:45.798Z,94015.00
2024-04-09T08:46:45.802Z,94015.00
2024-04-09T08:47:46.062Z,94010.00
2024-04-09T08:48:46.178Z,94008.00
2024-04-09T08:49:46.059Z,94007.00
2024-04-09T08:50:45.889Z,94006.00
2024-04-09T08:51:45.949Z,94002.00
2024-04-09T08:52:45.880Z,94000.00
2024-04-09T08:53:52.411Z,93999.00
2024-04-09T08:54:45.751Z,93995.00
2024-04-09T08:55:45.714Z,93996.00
2024-04-09T08:56:45.715Z,93999.00
2024-04-09T08:57:45.729Z,93998.00
2024-04-09T08:58:45.711Z,93996.00
2024-04-09T09:00:06.895Z,93994.00
2024-04-09T09:00:45.776Z,93992.00
2024-04-09T09:01:45.706Z,93992.00
2024-04-09T09:03:21.296Z,93994.00
2024-04-09T09:03:46.036Z,93994.00
2024-04-09T09:04:46.097Z,93996.00
2024-04-09T09:05:45.979Z,93993.00
2024-04-09T09:06:46.099Z,93993.00
2024-04-09T09:07:46.041Z,93995.00
2024-04-09T09:08:46.079Z,93996.00
2024-04-09T09:09:46.474Z,93999.00
2024-04-09T09:10:46.170Z,94002.00
2024-04-09T09:11:46.183Z,94002.00
2024-04-09T09:12:46.324Z,94003.00
2024-04-09T09:13:46.264Z,93999.00
2024-04-09T09:14:46.307Z,93997.00
2024-04-09T09:15:46.441Z,93993.00
2024-04-09T09:16:46.418Z,93990.00
2024-04-09T09:17:46.456Z,93989.00
2024-04-09T09:18:47.447Z,93988.00
2024-04-09T09:19:46.453Z,93987.00
2024-04-09T09:20:46.556Z,93987.00
2024-04-09T09:21:46.682Z,93980.00
2024-04-09T09:22:46.552Z,93978.00
2024-04-09T09:23:46.591Z,93974.00
2024-04-09T09:25:00.925Z,93974.00
2024-04-09T09:25:46.625Z,93971.00
2024-04-09T09:26:46.622Z,93969.00
2024-04-09T09:28:01.444Z,93967.00
2024-04-09T09:28:46.602Z,93965.00
2024-04-09T09:29:46.969Z,93963.00
2024-04-09T09:30:46.816Z,93961.00
2024-04-09T09:31:46.733Z,93960.00
2024-04-09T09:32:46.673Z,93961.00
2024-04-09T09:33:46.653Z,93956.00
2024-04-09T09:34:46.964Z,93958.00
2024-04-09T09:35:46.605Z,93953.00
2024-04-09T09:36:46.654Z,93951.00
2024-04-09T09:37:46.608Z,93951.00
2024-04-09T09:38:46.635Z,93948.00
2024-04-09T09:39:47.006Z,93949.00
2024-04-09T09:40:46.626Z,93951.00
2024-04-09T09:41:46.612Z,93951.00
2024-04-09T09:42:46.728Z,93948.00
2024-04-09T09:43:46.606Z,93948.00
2024-04-09T09:44:46.622Z,93948.00
2024-04-09T09:45:46.740Z,93945.00
2024-04-09T09:46:53.428Z,93943.00
2024-04-09T09:47:46.675Z,93943.00
2024-04-09T09:48:46.650Z,93943.00
2024-04-09T09:50:10.286Z,93940.00
2024-04-09T09:50:47.601Z,93940.00
2024-04-09T09:51:46.639Z,93941.00
2024-04-09T09:53:14.626Z,93942.00
2024-04-09T09:53:46.620Z,93938.00
2024-04-09T09:54:47.035Z,93938.00
2024-04-09T09:56:08.450Z,93938.00
2024-04-09T09:56:46.612Z,93937.00
2024-04-09T09:57:46.616Z,93938.00
2024-04-09T09:58:46.595Z,93935.00
2024-04-09T09:59:46.593Z,93931.00
2024-04-09T10:00:46.666Z,93930.00
2024-04-09T10:01:46.649Z,93929.00
2024-04-09T10:02:50.728Z,93927.00
2024-04-09T10:03:46.737Z,93927.00
2024-04-09T10:04:46.664Z,93925.00
2024-04-09T10:05:46.623Z,93924.00
2024-04-09T10:06:46.619Z,93925.00
2024-04-09T10:07:46.591Z,93924.00
2024-04-09T10:08:46.599Z,93925.00
2024-04-09T10:09:46.701Z,93922.00
2024-04-09T10:10:46.610Z,93921.00
2024-04-09T10:11:46.735Z,93923.00
2024-04-09T10:12:46.810Z,93920.00
2024-04-09T10:13:46.599Z,93917.00
2024-04-09T10:14:46.635Z,93915.00
2024-04-09T10:15:46.757Z,93910.00
2024-04-09T10:16:46.704Z,93908.00
2024-04-09T10:17:53.622Z,93908.00
2024-04-09T10:18:46.927Z,93908.00
2024-04-09T10:19:46.981Z,93908.00
2024-04-09T10:21:01.581Z,93910.00
2024-04-09T10:21:46.777Z,93907.00
2024-04-09T10:22:46.741Z,93906.00
2024-04-09T10:23:46.741Z,93904.00
2024-04-09T10:24:46.837Z,93900.00
2024-04-09T10:25:46.735Z,93901.00
2024-04-09T10:26:46.737Z,93903.00
2024-04-09T10:27:46.831Z,93898.00
2024-04-09T10:28:46.744Z,93894.00
2024-04-09T10:29:46.752Z,93892.00
2024-04-09T10:30:46.883Z,93890.00
2024-04-09T10:31:46.765Z,93888.00
2024-04-09T10:32:46.762Z,93889.00
2024-04-09T10:33:46.809Z,93886.00
2024-04-09T10:34:47.083Z,93887.00
2024-04-09T10:35:46.774Z,93886.00
2024-04-09T10:36:46.837Z,93885.00
2024-04-09T10:37:46.727Z,93883.00
2024-04-09T10:38:46.741Z,93884.00
2024-04-09T10:39:47.043Z,93885.00
2024-04-09T10:40:46.751Z,93885.00
2024-04-09T10:41:46.718Z,93886.00
2024-04-09T10:42:53.504Z,93884.00
2024-04-09T10:43:46.719Z,93882.00
2024-04-09T10:44:46.735Z,93884.00
2024-04-09T10:46:08.371Z,93880.00
2024-04-09T10:46:47.725Z,93880.00
2024-04-09T10:47:46.814Z,93875.00
2024-04-09T10:49:13.092Z,93871.00
2024-04-09T10:49:46.784Z,93871.00
2024-04-09T10:50:46.829Z,93869.00
2024-04-09T10:51:46.947Z,93866.00
2024-04-09T10:52:46.959Z,93866.00
2024-04-09T10:53:47.037Z,93865.00
2024-04-09T10:54:47.135Z,93865.00
2024-04-09T10:55:47.163Z,93864.00
2024-04-09T10:56:47.316Z,93864.00
2024-04-09T10:57:47.329Z,93863.00
2024-04-09T10:58:47.358Z,93863.00
2024-04-09T10:59:47.423Z,93858.00
2024-04-09T11:00:47.580Z,93855.00
2024-04-09T11:01:47.567Z,93850.00
2024-04-09T11:02:47.675Z,93850.00
2024-04-09T11:03:47.854Z,93854.00
2024-04-09T11:04:58.579Z,93855.00
2024-04-09T11:05:47.743Z,93853.00
2024-04-09T11:06:47.801Z,93852.00
2024-04-09T11:07:54.475Z,93845.00
2024-04-09T11:08:47.834Z,93844.00
2024-04-09T11:09:48.120Z,93837.00
2024-04-09T11:10:50.494Z,93836.00
2024-04-09T11:11:47.748Z,93838.00
2024-04-09T11:12:47.799Z,93837.00
2024-04-09T11:14:10.501Z,93835.00
2024-04-09T11:14:47.754Z,93835.00
2024-04-09T11:15:47.836Z,93834.00
2024-04-09T11:16:47.725Z,93830.00
2024-04-09T11:17:47.763Z,93831.00
2024-04-09T11:18:47.852Z,93826.00
2024-04-09T11:19:50.154Z,93824.00
2024-04-09T11:20:47.704Z,93821.00
2024-04-09T11:21:47.743Z,93818.00
2024-04-09T11:22:47.683Z,93816.00
2024-04-09T11:23:47.724Z,93818.00
2024-04-09T11:24:47.724Z,93818.00
2024-04-09T11:25:47.672Z,93825.00
2024-04-09T11:26:47.664Z,93825.00
2024-04-09T11:27:47.702Z,93825.00
2024-04-09T11:28:47.645Z,93827.00
2024-04-09T11:29:47.651Z,93827.00
2024-04-09T11:30:47.712Z,93827.00
2024-04-09T11:31:47.626Z,93828.00
2024-04-09T11:32:50.588Z,93825.00
2024-04-09T11:33:47.713Z,93823.00
2024-04-09T11:34:47.710Z,93823.00
2024-04-09T11:36:10.365Z,93819.00
2024-04-09T11:36:48.644Z,93814.00
2024-04-09T11:37:47.598Z,93816.00
2024-04-09T11:39:02.553Z,93818.00
2024-04-09T11:39:47.683Z,93822.00
2024-04-09T11:40:47.562Z,93824.00
2024-04-09T11:41:48.637Z,93818.00
2024-04-09T11:42:47.587Z,93823.00
2024-04-09T11:43:47.547Z,93824.00
2024-04-09T11:44:47.544Z,93822.00
2024-04-09T11:45:47.583Z,93822.00